LBGO

Details ICAO LBGO (GOZ)
Name Gorna Oryahovitsa
Region Bulgaria
Timezone Europe/Sofia (UTC+2.0)
Plans Departing 12
Arriving 8
Stats Elevation 285 ft / 87 m (AMSL)
Location 43.151448° 25.712914°
Runways 1
Magnetic Variation 5.336° E
Sunrise 2017-12-17 05:44:43 UTC / 2017-12-17 07:44:43 Local
Sunset 2017-12-17 14:44:29 UTC / 2017-12-17 16:44:29 Local
Advertisement - Login to hide

Runways

ID Width Length Bearing (true) Bearing (mag) Surface Threshold Offset Overrun Length
10 148 ft / 45 m 8,048 ft / 2,453 m 98.10° 92.76° Concrete 656 ft / 200 m 0 ft / 0 m
28 148 ft / 45 m 8,048 ft / 2,453 m 278.12° 272.78° Concrete 656 ft / 200 m 0 ft / 0 m

Map

Weather


0- 5 10 15 20 25 30 35+ Temperature / ° C

Clouds and Precipitation
Forecast for 2017-12-17 06:00 UTC. Updated an hour ago

Ground ~20,000 ft ~40,000 ft Winds

METAR

LBGO 170630Z AUTO 34007KT 2900 -RA SCT004/// BKN011/// OVC015/// 05/05 Q1012 R99/29//94 NOSIG

TAF

TAF LBGO 170500Z 1706/1806 28012KT 5000 RA BKN015 OVC025 PROB30 TEMPO 1715/1718 3000 SNRA BKN010 OVC020 BECMG 1719/1721 9999 NSW SCT030 BKN050

Frequencies

Tower 119.70 MHz TWR
Warning: Do not use this data for real-world aviation or navigation. No guarantee of current accuracy is given.